Time;durP1;ratioP1;P1;durP2;ratioP2;P2;SDS_P1;SDS_P2;PMS_P1;PMS_P2;Temp;Humidity;BMP_temperature;BMP_pressure;BME280_temperature;BME280_humidity;BME280_pressure;Samples;Min_cycle;Max_cycle;Signal;HPM_P1;HPM_P2
2021/01/21 00:03:24;;;;;;;10.63;8.33;;;3.20;37.70;;;;;;10475246;28;20351;-83
2021/01/21 00:08:27;;;;;;;10.03;8.27;;;3.20;37.70;;;;;;10481540;28;20700;-86
2021/01/21 00:13:29;;;;;;;10.13;8.13;;;3.40;37.90;;;;;;10478495;28;20311;-86
2021/01/21 00:18:32;;;;;;;9.03;8.13;;;3.20;37.70;;;;;;10479723;28;20228;-86
2021/01/21 00:23:35;;;;;;;7.93;7.03;;;3.20;37.90;;;;;;10476130;28;20311;-86
2021/01/21 00:28:37;;;;;;;9.53;7.93;;;3.10;37.70;;;;;;10484966;28;20303;-84
2021/01/21 00:33:41;;;;;;;8.63;7.73;;;3.10;37.50;;;;;;10486285;28;20314;-86
2021/01/21 00:38:43;;;;;;;8.90;7.73;;;3.00;37.50;;;;;;10485853;28;21173;-86
2021/01/21 00:43:45;;;;;;;10.13;8.20;;;3.00;37.70;;;;;;10479071;28;20228;-86
2021/01/21 00:48:49;;;;;;;8.47;7.37;;;2.90;37.70;;;;;;10480112;28;20216;-86
2021/01/21 00:53:51;;;;;;;11.97;8.00;;;2.90;37.80;;;;;;10482886;28;20235;-86
2021/01/21 00:58:53;;;;;;;10.50;8.43;;;2.90;37.70;;;;;;10483460;28;20213;-83
2021/01/21 01:03:56;;;;;;;11.80;8.07;;;3.00;37.90;;;;;;10478125;28;20227;-85
2021/01/21 01:08:58;;;;;;;10.37;8.67;;;2.70;37.70;;;;;;10485558;28;20228;-86
2021/01/21 01:14:01;;;;;;;9.67;8.40;;;2.60;37.70;;;;;;10480469;28;20298;-86
2021/01/21 01:19:04;;;;;;;10.40;8.00;;;2.60;37.90;;;;;;10487509;28;20255;-85
2021/01/21 01:24:07;;;;;;;10.27;8.57;;;2.50;37.90;;;;;;10479584;28;20650;-86
2021/01/21 01:29:09;;;;;;;9.70;8.07;;;2.50;38.00;;;;;;10486733;28;20232;-86
2021/01/21 01:34:13;;;;;;;9.37;6.83;;;2.60;38.10;;;;;;10498369;22;20300;-69
2021/01/21 01:39:15;;;;;;;13.23;9.60;;;2.40;38.10;;;;;;10485663;28;20240;-69
2021/01/21 01:44:18;;;;;;;9.67;7.60;;;2.40;38.20;;;;;;10490411;28;20305;-71
2021/01/21 01:49:21;;;;;;;9.17;7.20;;;2.30;38.30;;;;;;10488987;28;20315;-71
2021/01/21 01:54:23;;;;;;;9.27;8.30;;;2.30;38.40;;;;;;10481190;28;20224;-71
2021/01/21 01:59:25;;;;;;;11.50;8.33;;;2.20;38.20;;;;;;10494509;28;20235;-71
2021/01/21 02:04:28;;;;;;;9.27;7.73;;;2.20;38.50;;;;;;10489943;28;20594;-71
2021/01/21 02:09:41;;;;;;;8.73;6.83;;;2.20;38.70;;;;;;10484639;28;20696;-71
2021/01/21 02:14:51;;;;;;;9.10;7.57;;;2.10;38.60;;;;;;10483192;28;20232;-71
2021/01/21 02:20:29;;;;;;;9.70;7.87;;;2.10;39.00;;;;;;10491805;28;20265;-71
2021/01/21 02:25:36;;;;;;;7.40;6.60;;;2.10;39.40;;;;;;10488485;28;20216;-71
2021/01/21 02:30:52;;;;;;;8.57;7.30;;;2.20;39.20;;;;;;10492173;28;20779;-71
2021/01/21 02:36:01;;;;;;;7.00;6.30;;;2.10;39.40;;;;;;10491269;28;20226;-71
2021/01/21 02:41:04;;;;;;;7.87;7.07;;;2.20;39.50;;;;;;10485127;28;20224;-71
2021/01/21 02:46:06;;;;;;;8.27;6.80;;;2.20;39.40;;;;;;10484587;28;20315;-70
2021/01/21 02:51:17;;;;;;;8.80;7.43;;;2.30;39.30;;;;;;10491407;28;20320;-70
2021/01/21 02:56:21;;;;;;;8.97;7.23;;;2.30;39.30;;;;;;10484285;28;20244;-71
2021/01/21 03:01:24;;;;;;;8.10;6.57;;;2.30;39.40;;;;;;10489990;28;20323;-71
2021/01/21 03:06:29;;;;;;;8.03;6.63;;;2.40;39.50;;;;;;10487940;28;20343;-71
2021/01/21 03:11:31;;;;;;;7.23;6.23;;;2.40;39.60;;;;;;10484912;28;20604;-71
2021/01/21 03:16:33;;;;;;;8.60;7.53;;;2.50;39.30;;;;;;10484151;28;20232;-71
2021/01/21 03:21:37;;;;;;;8.47;7.13;;;2.50;39.30;;;;;;10485900;28;20236;-71
2021/01/21 03:26:39;;;;;;;8.27;7.10;;;2.50;39.30;;;;;;10490981;28;20247;-71
2021/01/21 03:31:41;;;;;;;7.27;6.53;;;2.40;39.30;;;;;;10477576;28;20232;-72
2021/01/21 03:36:44;;;;;;;8.40;6.90;;;2.50;39.50;;;;;;10486059;28;20307;-71
2021/01/21 03:41:49;;;;;;;7.33;6.40;;;2.50;39.50;;;;;;10479120;28;20231;-70
2021/01/21 03:46:51;;;;;;;7.80;6.80;;;2.60;39.40;;;;;;10486211;28;20224;-70
2021/01/21 03:51:54;;;;;;;7.10;6.17;;;2.60;39.30;;;;;;10483912;28;20228;-71
2021/01/21 03:56:56;;;;;;;7.47;6.67;;;2.60;39.30;;;;;;10487106;28;20232;-71
2021/01/21 04:01:58;;;;;;;7.97;6.90;;;2.70;39.50;;;;;;10481056;28;20327;-71
2021/01/21 04:07:02;;;;;;;7.93;6.73;;;2.50;39.10;;;;;;10489063;28;20224;-70
2021/01/21 04:12:05;;;;;;;8.13;6.67;;;2.50;39.40;;;;;;10486491;28;20228;-70
2021/01/21 04:17:07;;;;;;;6.50;5.90;;;2.40;39.30;;;;;;10479534;28;20234;-71
2021/01/21 04:22:10;;;;;;;6.40;5.80;;;2.50;39.50;;;;;;10475861;28;20233;-71
2021/01/21 04:27:13;;;;;;;7.63;6.37;;;2.50;39.60;;;;;;10487186;28;20238;-71
2021/01/21 04:32:15;;;;;;;6.83;6.17;;;2.50;39.50;;;;;;10484431;28;20256;-71
2021/01/21 04:37:18;;;;;;;6.93;6.03;;;2.50;39.40;;;;;;10482068;28;20722;-71
2021/01/21 04:42:20;;;;;;;7.03;5.77;;;2.50;39.50;;;;;;10479422;28;20347;-70
2021/01/21 04:47:37;;;;;;;6.70;5.90;;;2.50;39.50;;;;;;10483628;28;20228;-71
2021/01/21 04:52:44;;;;;;;7.50;6.77;;;2.50;39.40;;;;;;10479201;28;20244;-70
2021/01/21 04:57:51;;;;;;;7.83;6.83;;;2.60;39.60;;;;;;10485057;28;20232;-70
2021/01/21 05:02:53;;;;;;;7.53;6.77;;;2.60;39.50;;;;;;10482289;28;20220;-71
2021/01/21 05:07:57;;;;;;;7.90;7.10;;;2.70;39.50;;;;;;10489687;28;20250;-71
2021/01/21 05:13:01;;;;;;;8.23;6.80;;;2.50;39.40;;;;;;10485957;28;20234;-71
2021/01/21 05:18:03;;;;;;;7.17;6.47;;;2.50;39.40;;;;;;10491701;28;20298;-71
2021/01/21 05:23:07;;;;;;;8.40;6.87;;;2.40;39.70;;;;;;10492617;28;20397;-71
2021/01/21 05:28:11;;;;;;;9.13;7.03;;;2.50;39.90;;;;;;10490598;28;20228;-71
2021/01/21 05:33:15;;;;;;;7.80;6.73;;;2.50;39.90;;;;;;10483165;28;20231;-71
2021/01/21 05:38:18;;;;;;;7.30;6.57;;;2.50;40.00;;;;;;10488314;28;20708;-70
2021/01/21 05:43:23;;;;;;;6.83;6.10;;;2.50;40.00;;;;;;10487301;28;20224;-70
2021/01/21 05:48:25;;;;;;;7.03;6.33;;;2.50;40.20;;;;;;10486403;28;20224;-71
2021/01/21 05:53:29;;;;;;;8.30;6.50;;;2.50;40.00;;;;;;10489175;28;20315;-71
2021/01/21 05:58:32;;;;;;;6.97;6.10;;;2.50;40.10;;;;;;10487044;28;20227;-71
2021/01/21 06:03:35;;;;;;;8.47;6.90;;;2.50;40.10;;;;;;10491534;28;20228;-71
2021/01/21 06:08:41;;;;;;;7.03;6.20;;;2.50;40.20;;;;;;10487056;28;20226;-71
2021/01/21 06:13:53;;;;;;;7.70;6.90;;;2.60;40.50;;;;;;10490466;28;20231;-71
2021/01/21 06:18:55;;;;;;;8.07;6.63;;;2.60;40.90;;;;;;10486632;28;20228;-71
2021/01/21 06:24:02;;;;;;;7.57;6.27;;;2.70;40.40;;;;;;10496937;28;20224;-70
2021/01/21 06:29:06;;;;;;;8.40;7.60;;;2.70;40.60;;;;;;10489019;28;20252;-71
2021/01/21 06:34:15;;;;;;;7.50;6.67;;;2.70;40.40;;;;;;10481998;28;20604;-70
2021/01/21 06:39:26;;;;;;;6.73;5.80;;;2.70;40.40;;;;;;10482833;28;20704;-70
2021/01/21 06:44:30;;;;;;;9.73;6.47;;;2.80;40.80;;;;;;10478001;28;20220;-71
2021/01/21 06:49:32;;;;;;;7.03;5.47;;;2.80;40.50;;;;;;10488477;28;20236;-71
2021/01/21 06:54:37;;;;;;;6.43;5.67;;;2.80;40.50;;;;;;10481241;28;20231;-70
2021/01/21 06:59:53;;;;;;;7.57;6.00;;;2.90;40.70;;;;;;10480728;28;20346;-70
2021/01/21 07:05:08;;;;;;;6.73;5.87;;;2.90;41.00;;;;;;10486197;28;20220;-69
2021/01/21 07:10:13;;;;;;;7.37;5.73;;;3.00;41.10;;;;;;10484098;28;20228;-71
2021/01/21 07:15:17;;;;;;;6.43;5.83;;;3.00;40.80;;;;;;10487681;28;20229;-71
2021/01/21 07:20:20;;;;;;;6.50;5.90;;;3.00;40.60;;;;;;10483882;28;20712;-71
2021/01/21 07:25:29;;;;;;;6.37;5.77;;;3.00;40.80;;;;;;10480598;28;20808;-71
2021/01/21 07:30:37;;;;;;;6.53;5.90;;;3.10;41.20;;;;;;10476060;28;20235;-71
2021/01/21 07:35:39;;;;;;;6.73;6.10;;;3.10;41.20;;;;;;10483307;28;20315;-71
2021/01/21 07:40:47;;;;;;;6.97;6.27;;;3.30;41.00;;;;;;10475602;28;20315;-71
2021/01/21 07:45:49;;;;;;;6.50;5.30;;;3.30;41.40;;;;;;10481051;28;20303;-69
2021/01/21 07:50:52;;;;;;;6.63;5.90;;;3.50;41.20;;;;;;10477893;28;20246;-70
2021/01/21 07:56:03;;;;;;;9.03;7.10;;;3.40;41.20;;;;;;10480998;28;20247;-70
2021/01/21 08:01:07;;;;;;;7.90;7.07;;;3.50;41.50;;;;;;10477450;28;20617;-70
2021/01/21 08:06:12;;;;;;;7.63;6.83;;;3.60;41.90;;;;;;10480132;28;20228;-70
2021/01/21 08:11:17;;;;;;;8.17;7.33;;;3.70;41.40;;;;;;10473625;28;20235;-70
2021/01/21 08:16:19;;;;;;;10.03;8.37;;;3.80;41.70;;;;;;10473291;28;20225;-70
2021/01/21 08:21:23;;;;;;;7.90;7.10;;;3.90;41.50;;;;;;10482917;28;20289;-70
2021/01/21 08:26:27;;;;;;;7.17;6.37;;;4.00;41.70;;;;;;10475513;28;21302;-70
2021/01/21 08:31:37;;;;;;;6.63;5.90;;;4.10;41.90;;;;;;10481236;28;20235;-70
2021/01/21 08:36:40;;;;;;;7.50;6.67;;;4.30;42.20;;;;;;10479692;28;20224;-69
2021/01/21 08:41:44;;;;;;;7.90;7.20;;;4.40;41.70;;;;;;10479914;28;20259;-70
2021/01/21 08:46:57;;;;;;;7.67;6.87;;;4.60;41.70;;;;;;10483752;28;20258;-69
2021/01/21 08:52:06;;;;;;;7.27;6.60;;;4.80;41.70;;;;;;10476023;28;20301;-70
2021/01/21 08:57:11;;;;;;;12.27;9.17;;;4.90;41.60;;;;;;10478074;28;20366;-70
2021/01/21 09:02:14;;;;;;;19.47;12.67;;;5.00;41.30;;;;;;10479995;28;20228;-69
2021/01/21 09:07:24;;;;;;;15.00;10.43;;;5.10;41.50;;;;;;10472523;28;20234;-70
2021/01/21 09:12:27;;;;;;;9.30;7.50;;;5.30;41.90;;;;;;10481833;28;20731;-70
2021/01/21 09:17:30;;;;;;;6.73;6.03;;;5.40;41.70;;;;;;10479852;28;20224;-71
2021/01/21 09:22:39;;;;;;;8.17;6.93;;;5.60;41.30;;;;;;10479545;28;20753;-71
2021/01/21 09:27:52;;;;;;;8.57;7.67;;;5.60;40.80;;;;;;10474899;28;20220;-71
2021/01/21 09:32:54;;;;;;;7.93;6.97;;;5.60;40.70;;;;;;10477078;28;20266;-68
2021/01/21 09:37:57;;;;;;;8.10;6.47;;;5.60;41.30;;;;;;10472629;28;20663;-71
2021/01/21 09:43:03;;;;;;;7.37;6.67;;;5.60;41.90;;;;;;10468621;28;20252;-70
2021/01/21 09:48:06;;;;;;;7.20;6.50;;;5.70;41.30;;;;;;10476835;28;20224;-70
2021/01/21 09:53:08;;;;;;;7.40;6.70;;;5.80;41.30;;;;;;10474330;28;20236;-72
2021/01/21 09:58:13;;;;;;;6.80;6.17;;;5.90;41.30;;;;;;10479516;28;20224;-70
2021/01/21 10:03:15;;;;;;;9.97;5.97;;;6.00;41.30;;;;;;10486135;28;20357;-70
2021/01/21 10:08:18;;;;;;;6.80;6.20;;;6.10;41.10;;;;;;10482199;28;20224;-70
2021/01/21 10:13:21;;;;;;;6.93;6.33;;;6.20;41.20;;;;;;10485386;28;20691;-70
2021/01/21 10:18:23;;;;;;;6.27;5.63;;;6.30;41.30;;;;;;10476669;28;20312;-70
2021/01/21 10:23:25;;;;;;;9.13;5.70;;;6.40;41.20;;;;;;10483629;28;20224;-68
2021/01/21 10:28:28;;;;;;;7.97;7.17;;;6.50;43.80;;;;;;10477607;28;20230;-68
2021/01/21 10:33:30;;;;;;;8.10;6.93;;;6.80;45.90;;;;;;10485195;28;20319;-69
2021/01/21 10:38:33;;;;;;;6.73;6.13;;;7.20;45.90;;;;;;10479472;28;20228;-69
2021/01/21 10:43:36;;;;;;;7.93;7.13;;;7.80;45.90;;;;;;10484041;28;20229;-71
2021/01/21 10:48:39;;;;;;;7.40;6.70;;;8.40;44.60;;;;;;10484355;28;20213;-72
2021/01/21 10:53:41;;;;;;;8.57;7.73;;;8.90;42.80;;;;;;10484258;28;20255;-71
2021/01/21 10:58:44;;;;;;;7.57;6.87;;;9.10;41.30;;;;;;10482396;28;20217;-72
2021/01/21 11:03:46;;;;;;;7.87;7.07;;;9.20;40.20;;;;;;10485354;28;20306;-72
2021/01/21 11:08:48;;;;;;;8.60;7.80;;;9.20;40.20;;;;;;10478927;28;20219;-72
2021/01/21 11:13:53;;;;;;;8.40;7.50;;;9.20;40.20;;;;;;10471231;28;20217;-72
2021/01/21 11:18:56;;;;;;;9.17;7.60;;;9.20;40.20;;;;;;10477355;28;20272;-73
2021/01/21 11:23:58;;;;;;;10.40;8.20;;;9.30;40.30;;;;;;10482411;28;20225;-73
2021/01/21 11:29:01;;;;;;;12.60;10.97;;;9.40;40.60;;;;;;10479709;28;20231;-74
2021/01/21 11:34:04;;;;;;;10.30;9.27;;;9.50;40.50;;;;;;10468797;28;20315;-73
2021/01/21 11:39:08;;;;;;;11.17;8.90;;;9.70;40.60;;;;;;10473092;28;20229;-74
2021/01/21 11:44:11;;;;;;;9.87;8.03;;;9.80;40.70;;;;;;10470386;28;20227;-73
2021/01/21 11:49:14;;;;;;;8.77;7.80;;;10.00;39.60;;;;;;10470593;28;20598;-74
2021/01/21 11:54:16;;;;;;;7.67;6.87;;;10.10;39.70;;;;;;10481832;28;20224;-73
2021/01/21 11:59:19;;;;;;;7.03;6.33;;;10.20;39.30;;;;;;10466832;28;20250;-73
2021/01/21 12:04:21;;;;;;;8.17;6.00;;;10.40;39.20;;;;;;10481612;28;20340;-73
2021/01/21 12:09:23;;;;;;;7.00;6.10;;;10.50;39.10;;;;;;10478398;28;20246;-73
2021/01/21 12:14:26;;;;;;;6.17;5.57;;;10.60;39.10;;;;;;10475583;28;20681;-73
2021/01/21 12:19:29;;;;;;;6.67;5.73;;;10.80;38.80;;;;;;10487255;28;20238;-74
2021/01/21 12:24:31;;;;;;;5.90;5.30;;;10.90;38.60;;;;;;10488708;28;20593;-73
2021/01/21 12:29:34;;;;;;;5.43;4.93;;;11.00;38.60;;;;;;10488650;28;20281;-74
2021/01/21 12:34:36;;;;;;;6.43;4.97;;;11.10;37.90;;;;;;10479812;28;20252;-72
2021/01/21 12:39:40;;;;;;;7.60;5.13;;;11.20;38.00;;;;;;10482568;28;20305;-72
2021/01/21 12:44:43;;;;;;;5.97;5.27;;;11.30;38.20;;;;;;10473546;28;20303;-72
2021/01/21 12:49:45;;;;;;;5.47;4.97;;;11.30;38.00;;;;;;10478055;28;20228;-72
2021/01/21 12:54:48;;;;;;;7.37;5.53;;;11.40;38.20;;;;;;10485752;28;20347;-72
2021/01/21 12:59:52;;;;;;;4.93;4.40;;;11.40;37.70;;;;;;10472976;28;20612;-72
2021/01/21 13:04:54;;;;;;;6.13;4.43;;;11.40;37.50;;;;;;10480274;28;20308;-72
2021/01/21 13:09:56;;;;;;;11.90;10.63;;;11.50;37.60;;;;;;10474442;28;20236;-72
2021/01/21 13:14:59;;;;;;;7.43;6.47;;;11.50;37.90;;;;;;10475657;28;20286;-72
2021/01/21 13:20:02;;;;;;;6.67;6.07;;;11.60;37.00;;;;;;10477265;28;20224;-72
2021/01/21 13:25:07;;;;;;;5.53;4.40;;;11.60;37.20;;;;;;10467088;28;20221;-72
2021/01/21 13:30:12;;;;;;;7.03;4.47;;;11.70;37.30;;;;;;10484616;28;20308;-73
2021/01/21 13:35:15;;;;;;;5.30;4.80;;;11.70;36.80;;;;;;10482235;28;20358;-73
2021/01/21 13:40:17;;;;;;;9.50;5.60;;;11.70;37.00;;;;;;10472792;28;20233;-73
2021/01/21 13:45:24;;;;;;;8.67;6.67;;;11.70;36.90;;;;;;10501841;22;20279;-76
2021/01/21 13:50:26;;;;;;;13.57;8.73;;;11.70;36.60;;;;;;10469330;28;20318;-75
2021/01/21 13:55:28;;;;;;;9.47;6.53;;;11.70;36.80;;;;;;10487700;28;20231;-76
2021/01/21 14:00:31;;;;;;;13.20;9.53;;;11.70;37.60;;;;;;10486771;28;20229;-75
2021/01/21 14:05:33;;;;;;;12.33;10.10;;;11.70;36.60;;;;;;10487258;28;20311;-74
2021/01/21 14:10:37;;;;;;;8.10;7.30;;;11.60;36.70;;;;;;10486855;28;20655;-77
2021/01/21 14:15:40;;;;;;;7.53;6.00;;;11.60;36.50;;;;;;10485330;28;20256;-76
2021/01/21 14:20:44;;;;;;;6.43;5.80;;;11.50;36.20;;;;;;10483846;28;20224;-76
2021/01/21 14:25:47;;;;;;;8.23;5.60;;;11.50;36.30;;;;;;10484841;28;20303;-74
2021/01/21 14:30:50;;;;;;;7.20;5.13;;;11.40;36.30;;;;;;10485562;28;20638;-75
2021/01/21 14:35:52;;;;;;;9.50;5.00;;;11.40;36.10;;;;;;10489864;28;20598;-76
2021/01/21 14:40:55;;;;;;;7.57;5.33;;;11.40;36.10;;;;;;10490471;28;20314;-78
2021/01/21 14:45:58;;;;;;;10.23;8.60;;;11.40;37.10;;;;;;10487012;28;20266;-79
2021/01/21 14:51:00;;;;;;;14.57;12.37;;;11.40;36.20;;;;;;10487275;28;20278;-79
2021/01/21 14:56:03;;;;;;;12.40;11.10;;;11.40;36.30;;;;;;10487638;28;20234;-72
2021/01/21 15:01:06;;;;;;;11.07;9.43;;;11.30;36.50;;;;;;10481921;28;20242;-73
2021/01/21 15:06:09;;;;;;;13.23;8.80;;;11.30;36.10;;;;;;10486014;28;20232;-74
2021/01/21 15:11:11;;;;;;;9.93;7.70;;;11.20;36.00;;;;;;10485799;28;20696;-77
2021/01/21 15:16:14;;;;;;;8.67;7.03;;;11.10;36.10;;;;;;10484368;28;20243;-77
2021/01/21 15:21:17;;;;;;;8.70;6.90;;;11.10;36.00;;;;;;10490657;28;20230;-77
2021/01/21 15:26:19;;;;;;;13.53;7.80;;;11.00;36.10;;;;;;10481519;28;20224;-76
2021/01/21 15:31:22;;;;;;;9.43;7.10;;;10.90;36.00;;;;;;10485407;28;20767;-76
2021/01/21 15:36:26;;;;;;;9.07;7.83;;;10.80;36.00;;;;;;10483404;28;20250;-76
2021/01/21 15:41:28;;;;;;;10.90;9.37;;;10.70;35.90;;;;;;10478013;28;20824;-75
2021/01/21 15:46:33;;;;;;;11.57;8.80;;;10.60;36.00;;;;;;10473863;28;20226;-75
2021/01/21 15:51:37;;;;;;;22.30;17.57;;;10.50;35.90;;;;;;10479680;28;20354;-75
2021/01/21 15:56:39;;;;;;;21.90;17.93;;;10.40;36.00;;;;;;10479200;28;20234;-75
2021/01/21 16:01:43;;;;;;;19.07;12.87;;;10.30;36.00;;;;;;10482626;28;20220;-75
2021/01/21 16:06:45;;;;;;;14.07;12.60;;;10.30;36.00;;;;;;10481335;28;20307;-74
2021/01/21 16:11:47;;;;;;;13.57;11.40;;;10.20;36.00;;;;;;10485395;28;20700;-74
2021/01/21 16:16:51;;;;;;;11.07;9.50;;;10.10;36.10;;;;;;10476394;28;20738;-75
2021/01/21 16:21:53;;;;;;;10.77;9.00;;;10.00;35.90;;;;;;10484808;28;20224;-74
2021/01/21 16:26:55;;;;;;;10.77;9.20;;;10.00;36.10;;;;;;10484783;28;20308;-75
2021/01/21 16:31:58;;;;;;;11.53;9.40;;;9.90;37.00;;;;;;10481907;28;20221;-77
2021/01/21 16:37:01;;;;;;;8.37;6.47;;;9.80;37.00;;;;;;10485441;28;20248;-78
2021/01/21 16:42:04;;;;;;;9.13;7.20;;;9.80;37.00;;;;;;10477274;28;20279;-79
2021/01/21 16:47:07;;;;;;;9.93;7.50;;;9.70;37.00;;;;;;10489963;28;20236;-78
2021/01/21 16:52:09;;;;;;;8.80;7.40;;;9.60;37.90;;;;;;10478528;28;20221;-74
2021/01/21 16:57:12;;;;;;;9.23;6.40;;;9.60;37.40;;;;;;10481052;28;20237;-73
2021/01/21 17:02:16;;;;;;;7.20;6.50;;;9.60;37.30;;;;;;10493986;28;20224;-75
2021/01/21 17:07:19;;;;;;;9.90;7.57;;;9.60;37.00;;;;;;10487469;28;20259;-76
2021/01/21 17:12:21;;;;;;;13.30;10.43;;;9.50;37.20;;;;;;10491054;28;20311;-76
2021/01/21 17:17:24;;;;;;;13.53;10.67;;;9.50;37.20;;;;;;10493918;28;20688;-76
2021/01/21 17:22:27;;;;;;;13.53;10.33;;;9.40;37.80;;;;;;10488147;28;20274;-74
2021/01/21 17:27:29;;;;;;;13.83;11.77;;;9.30;37.20;;;;;;10486507;28;20229;-76
2021/01/21 17:32:33;;;;;;;13.57;11.87;;;9.20;37.30;;;;;;10485552;28;20601;-77
2021/01/21 17:37:37;;;;;;;11.23;9.30;;;9.20;37.30;;;;;;10489566;28;20216;-76
2021/01/21 17:42:40;;;;;;;12.63;9.73;;;9.10;37.30;;;;;;10490258;28;20310;-76
2021/01/21 17:47:46;;;;;;;16.67;12.57;;;9.00;37.40;;;;;;10488691;28;20597;-76
2021/01/21 17:52:49;;;;;;;14.80;12.80;;;9.00;37.40;;;;;;10489561;28;20220;-77
2021/01/21 17:57:51;;;;;;;12.47;10.83;;;9.00;37.40;;;;;;10487920;28;20254;-76
2021/01/21 18:02:54;;;;;;;84.00;64.40;;;8.90;37.50;;;;;;10487609;28;20299;-77
2021/01/21 18:07:58;;;;;;;50.77;38.40;;;8.80;37.50;;;;;;10489151;28;20224;-77
2021/01/21 18:13:00;;;;;;;21.83;18.03;;;8.80;37.70;;;;;;10480910;28;20315;-77
2021/01/21 18:18:06;;;;;;;18.23;15.67;;;8.80;37.60;;;;;;10482079;28;20367;-77
2021/01/21 18:23:09;;;;;;;16.33;13.87;;;8.80;37.70;;;;;;10483196;28;20228;-76
2021/01/21 18:28:11;;;;;;;20.20;15.87;;;8.80;37.80;;;;;;10481781;28;20311;-76
2021/01/21 18:33:14;;;;;;;19.80;16.03;;;8.80;37.80;;;;;;10488668;28;20252;-75
2021/01/21 18:38:17;;;;;;;16.83;14.53;;;8.70;37.60;;;;;;10488224;28;20319;-76
2021/01/21 18:43:19;;;;;;;15.90;13.10;;;8.70;37.60;;;;;;10486394;28;20319;-75
2021/01/21 18:48:22;;;;;;;16.57;13.13;;;8.70;37.70;;;;;;10483871;28;20255;-75
2021/01/21 18:53:25;;;;;;;15.50;12.63;;;8.60;37.70;;;;;;10485494;28;20232;-75
2021/01/21 18:58:27;;;;;;;16.00;13.10;;;8.60;37.80;;;;;;10479880;28;20232;-75
2021/01/21 19:03:30;;;;;;;15.33;12.03;;;8.60;37.80;;;;;;10484070;28;20628;-75
2021/01/21 19:08:33;;;;;;;13.10;11.20;;;8.50;37.60;;;;;;10480859;28;20243;-75
2021/01/21 19:13:36;;;;;;;9.63;8.60;;;8.50;37.70;;;;;;10500486;23;20221;-72
2021/01/21 19:18:39;;;;;;;10.93;9.67;;;8.50;37.80;;;;;;10411186;28;20234;-71
2021/01/21 19:23:42;;;;;;;11.07;8.77;;;8.40;38.50;;;;;;10392232;28;20325;-71
2021/01/21 19:28:44;;;;;;;11.67;10.30;;;8.40;37.90;;;;;;10435241;28;20222;-71
2021/01/21 19:33:47;;;;;;;13.67;11.47;;;8.40;38.00;;;;;;10436340;28;20243;-71
2021/01/21 19:38:49;;;;;;;14.93;13.13;;;8.40;37.90;;;;;;10443342;28;20251;-71
2021/01/21 19:43:52;;;;;;;15.17;13.33;;;8.30;38.60;;;;;;10407178;28;20779;-70
2021/01/21 19:48:57;;;;;;;15.50;13.27;;;8.30;37.90;;;;;;10409607;28;20227;-72
2021/01/21 19:53:59;;;;;;;13.00;11.60;;;8.30;37.90;;;;;;10381872;22;20230;-71
2021/01/21 19:59:01;;;;;;;11.77;10.53;;;8.20;37.90;;;;;;10365815;28;20736;-71
2021/01/21 20:04:05;;;;;;;13.07;11.23;;;8.20;38.00;;;;;;10393929;28;20237;-71
2021/01/21 20:09:09;;;;;;;14.17;12.73;;;8.10;38.10;;;;;;10399803;28;20228;-71
2021/01/21 20:14:11;;;;;;;14.97;12.70;;;8.10;38.10;;;;;;10393608;28;20607;-71
2021/01/21 20:19:14;;;;;;;26.47;21.67;;;8.10;38.10;;;;;;10399863;28;20257;-71
2021/01/21 20:24:16;;;;;;;27.07;22.27;;;8.00;38.10;;;;;;10387231;28;20226;-71
2021/01/21 20:29:18;;;;;;;22.07;18.80;;;8.00;38.20;;;;;;10391611;28;20228;-71
2021/01/21 20:34:22;;;;;;;16.70;14.20;;;8.00;38.10;;;;;;10397531;28;20302;-72
2021/01/21 20:39:24;;;;;;;16.37;14.57;;;8.00;38.10;;;;;;10389469;28;20717;-71
2021/01/21 20:44:26;;;;;;;21.43;16.63;;;7.90;38.20;;;;;;10391293;28;20234;-71
2021/01/21 20:49:29;;;;;;;18.37;14.63;;;7.90;38.20;;;;;;10394118;28;20221;-70
2021/01/21 20:54:31;;;;;;;17.60;13.33;;;7.90;38.20;;;;;;10395149;28;20229;-71
2021/01/21 20:59:34;;;;;;;23.57;19.83;;;7.90;38.30;;;;;;10392507;28;20225;-70
2021/01/21 21:04:38;;;;;;;16.03;12.27;;;7.80;38.20;;;;;;10399911;28;20233;-70
2021/01/21 21:09:40;;;;;;;12.13;10.73;;;7.80;38.30;;;;;;10392740;28;20312;-70
2021/01/21 21:14:42;;;;;;;11.47;10.27;;;7.80;38.40;;;;;;10397166;28;20752;-70
2021/01/21 21:19:45;;;;;;;10.77;9.40;;;7.70;38.40;;;;;;10392625;28;20225;-70
2021/01/21 21:24:47;;;;;;;11.10;9.73;;;7.70;38.40;;;;;;10392364;28;20226;-70
2021/01/21 21:29:50;;;;;;;9.93;8.67;;;7.70;38.40;;;;;;10396438;28;20308;-70
2021/01/21 21:34:53;;;;;;;10.97;9.37;;;7.70;38.40;;;;;;10397276;28;20230;-70
2021/01/21 21:39:55;;;;;;;10.13;9.03;;;7.70;38.60;;;;;;10395372;28;20324;-70
2021/01/21 21:44:57;;;;;;;11.33;10.13;;;7.70;38.70;;;;;;10395516;28;20229;-70
2021/01/21 21:50:01;;;;;;;10.80;9.73;;;7.70;38.60;;;;;;10399464;28;20248;-70
2021/01/21 21:55:04;;;;;;;11.57;9.67;;;7.70;38.60;;;;;;10367900;28;20258;-70
2021/01/21 22:00:08;;;;;;;11.20;9.50;;;7.60;38.50;;;;;;10364014;28;20317;-70
2021/01/21 22:05:12;;;;;;;12.40;9.57;;;7.60;38.90;;;;;;10361861;28;20596;-70
2021/01/21 22:10:15;;;;;;;11.77;10.00;;;7.60;38.90;;;;;;10360041;28;20226;-70
2021/01/21 22:15:17;;;;;;;12.70;10.33;;;7.60;38.70;;;;;;10361981;28;20570;-70
2021/01/21 22:20:21;;;;;;;9.90;9.00;;;7.60;38.90;;;;;;10361037;28;20238;-70
2021/01/21 22:25:23;;;;;;;10.93;9.80;;;7.50;38.80;;;;;;10363930;28;20628;-70
2021/01/21 22:30:25;;;;;;;10.00;9.03;;;7.50;38.80;;;;;;10371503;28;20229;-70
2021/01/21 22:35:28;;;;;;;11.23;10.03;;;7.50;38.80;;;;;;10401948;28;20244;-70
2021/01/21 22:40:34;;;;;;;11.00;9.27;;;7.50;38.80;;;;;;10399218;28;20316;-70
2021/01/21 22:45:36;;;;;;;10.83;9.73;;;7.50;38.80;;;;;;10400343;28;20233;-70
2021/01/21 22:50:40;;;;;;;10.73;9.73;;;7.50;38.80;;;;;;10399982;28;20240;-70
2021/01/21 22:55:42;;;;;;;9.43;8.43;;;7.50;38.90;;;;;;10397987;28;20237;-70
2021/01/21 23:00:44;;;;;;;10.33;9.27;;;7.50;38.80;;;;;;10403604;28;20903;-73
2021/01/21 23:05:47;;;;;;;8.70;7.90;;;7.40;38.70;;;;;;10401395;28;20276;-70
2021/01/21 23:10:50;;;;;;;8.63;7.73;;;7.40;38.80;;;;;;10397079;28;20233;-70
2021/01/21 23:15:52;;;;;;;9.67;8.70;;;7.40;38.70;;;;;;10399935;28;20228;-70
2021/01/21 23:20:55;;;;;;;7.63;6.93;;;7.40;38.80;;;;;;10400634;28;20238;-70
2021/01/21 23:25:58;;;;;;;9.80;8.90;;;7.40;38.80;;;;;;10395322;28;20234;-70
2021/01/21 23:31:00;;;;;;;9.97;8.93;;;7.30;38.70;;;;;;10397784;28;20236;-70
2021/01/21 23:36:04;;;;;;;9.63;8.73;;;7.30;38.70;;;;;;10401902;28;20249;-70
2021/01/21 23:41:07;;;;;;;10.10;9.10;;;7.30;38.70;;;;;;10400933;28;20243;-70
2021/01/21 23:46:09;;;;;;;10.23;9.23;;;7.30;38.70;;;;;;10400802;28;20694;-73
2021/01/21 23:51:12;;;;;;;11.07;8.77;;;7.30;38.70;;;;;;10407528;28;20229;-70
2021/01/21 23:56:16;;;;;;;11.37;9.40;;;7.20;38.60;;;;;;10405687;28;20237;-70
